createdAt,value
2018-05-09T00:00:25.864Z,5.93
2018-05-09T00:02:52.235Z,2.63
2018-05-09T00:05:18.633Z,3.83
2018-05-09T00:07:45.004Z,3.30
2018-05-09T00:10:11.427Z,3.57
2018-05-09T00:12:37.857Z,3.20
2018-05-09T00:15:04.298Z,3.50
2018-05-09T00:17:30.604Z,3.67
2018-05-09T00:19:56.978Z,3.90
2018-05-09T00:22:23.416Z,3.43
2018-05-09T00:24:49.800Z,4.23
2018-05-09T00:27:16.226Z,3.33
2018-05-09T00:29:42.592Z,6.97
2018-05-09T00:32:08.910Z,3.17
2018-05-09T00:34:35.369Z,3.70
2018-05-09T00:37:01.777Z,6.80
2018-05-09T00:39:28.170Z,3.30
2018-05-09T00:41:54.573Z,5.23
2018-05-09T00:44:21.997Z,5.00
2018-05-09T00:46:48.361Z,6.87
2018-05-09T00:49:14.705Z,5.30
2018-05-09T00:51:41.027Z,4.67
2018-05-09T00:54:19.586Z,6.53
2018-05-09T00:56:45.900Z,5.77
2018-05-09T00:59:12.265Z,4.50
2018-05-09T01:01:38.645Z,3.00
2018-05-09T01:04:05.177Z,5.13
2018-05-09T01:06:31.504Z,4.03
2018-05-09T01:08:57.944Z,4.63
2018-05-09T01:11:24.299Z,4.97
2018-05-09T01:13:50.602Z,4.67
2018-05-09T01:16:18.053Z,2.90
2018-05-09T01:18:44.349Z,2.90
2018-05-09T01:21:10.835Z,4.23
2018-05-09T01:23:37.196Z,3.00
2018-05-09T01:26:03.552Z,3.20
2018-05-09T01:28:29.861Z,3.67
2018-05-09T01:30:56.356Z,6.67
2018-05-09T01:33:22.796Z,5.03
2018-05-09T01:35:49.327Z,2.97
2018-05-09T01:38:15.754Z,3.77
2018-05-09T01:40:42.195Z,4.37
2018-05-09T01:43:08.628Z,3.23
2018-05-09T01:45:35.115Z,3.07
2018-05-09T01:48:01.490Z,5.37
2018-05-09T01:50:27.853Z,3.97
2018-05-09T01:52:54.260Z,4.17
2018-05-09T01:55:21.662Z,4.10
2018-05-09T01:57:48.054Z,4.27
2018-05-09T02:00:14.397Z,3.23
2018-05-09T02:02:40.856Z,4.70
2018-05-09T02:05:08.208Z,3.60
2018-05-09T02:07:34.575Z,5.13
2018-05-09T02:10:00.900Z,4.27
2018-05-09T02:12:27.221Z,3.53
2018-05-09T02:14:53.754Z,3.70
2018-05-09T02:17:20.105Z,7.23
2018-05-09T02:19:46.528Z,3.53
2018-05-09T02:22:12.901Z,3.20
2018-05-09T02:24:39.287Z,5.03
2018-05-09T02:27:05.612Z,3.90
2018-05-09T02:29:31.956Z,3.93
2018-05-09T02:31:58.324Z,3.07
2018-05-09T02:34:28.761Z,4.13
2018-05-09T02:36:55.296Z,3.57
2018-05-09T02:39:21.597Z,5.53
2018-05-09T02:41:47.898Z,5.43
2018-05-09T02:44:14.260Z,3.97
2018-05-09T02:46:40.549Z,4.07
2018-05-09T02:49:06.882Z,3.47
2018-05-09T02:51:33.345Z,3.23
2018-05-09T02:53:59.923Z,3.83
2018-05-09T02:56:26.306Z,7.33
2018-05-09T02:58:52.786Z,4.20
2018-05-09T03:01:19.119Z,4.20
2018-05-09T03:03:45.555Z,4.50
2018-05-09T03:06:12.089Z,4.27
2018-05-09T03:08:38.526Z,3.63
2018-05-09T03:11:04.898Z,3.70
2018-05-09T03:13:31.385Z,5.20
2018-05-09T03:15:59.767Z,4.83
2018-05-09T03:18:26.092Z,3.50
2018-05-09T03:20:52.749Z,5.63
2018-05-09T03:23:19.384Z,3.30
2018-05-09T03:25:46.017Z,4.17
2018-05-09T03:28:12.389Z,4.37
2018-05-09T03:30:38.885Z,4.87
2018-05-09T03:33:05.219Z,3.53
2018-05-09T03:35:35.198Z,4.67
2018-05-09T03:38:01.589Z,3.73
2018-05-09T03:40:27.953Z,3.33
2018-05-09T03:42:54.537Z,7.17
2018-05-09T03:45:20.966Z,6.20
2018-05-09T03:47:47.274Z,3.30
2018-05-09T03:50:13.623Z,3.37
2018-05-09T03:52:39.960Z,3.70
2018-05-09T03:55:06.367Z,2.50
2018-05-09T03:57:32.743Z,3.70
2018-05-09T03:59:59.056Z,3.70
2018-05-09T04:02:43.636Z,6.13
2018-05-09T04:05:24.598Z,2.90
2018-05-09T04:08:03.321Z,4.53
2018-05-09T04:10:29.854Z,2.70
2018-05-09T04:12:56.287Z,3.87
2018-05-09T04:15:24.053Z,3.97
2018-05-09T04:17:50.476Z,3.43
2018-05-09T04:20:17.012Z,3.23
2018-05-09T04:22:43.662Z,3.27
2018-05-09T04:25:14.805Z,4.33
2018-05-09T04:27:41.340Z,5.13
2018-05-09T04:30:07.713Z,4.93
2018-05-09T04:32:34.098Z,3.37
2018-05-09T04:35:00.519Z,3.23
2018-05-09T04:37:26.938Z,2.80
2018-05-09T04:39:53.344Z,3.30
2018-05-09T04:42:19.825Z,3.00
2018-05-09T04:44:46.440Z,5.40
2018-05-09T04:47:12.918Z,3.53
2018-05-09T04:49:39.339Z,3.40
2018-05-09T04:52:06.080Z,4.57
2018-05-09T04:54:32.832Z,4.83
2018-05-09T04:56:59.326Z,8.50
2018-05-09T04:59:25.882Z,3.67
2018-05-09T05:01:52.329Z,3.10
2018-05-09T05:04:18.943Z,3.50
2018-05-09T05:06:45.400Z,3.53
2018-05-09T05:09:11.937Z,6.77
2018-05-09T05:11:38.358Z,3.53
2018-05-09T05:14:04.712Z,4.87
2018-05-09T05:16:31.119Z,5.20
2018-05-09T05:18:57.609Z,6.00
2018-05-09T05:21:24.096Z,3.33
2018-05-09T05:23:50.479Z,3.53
2018-05-09T05:26:16.991Z,3.27
2018-05-09T05:28:43.365Z,4.17
2018-05-09T05:31:09.809Z,3.13
2018-05-09T05:33:36.329Z,5.97
2018-05-09T05:36:02.871Z,4.37
2018-05-09T05:38:29.400Z,3.70
2018-05-09T05:40:55.904Z,3.57
2018-05-09T05:43:22.388Z,3.37
2018-05-09T05:45:48.884Z,6.50
2018-05-09T05:48:15.358Z,4.47
2018-05-09T05:50:41.941Z,3.17
2018-05-09T05:53:08.405Z,3.47
2018-05-09T05:55:34.910Z,3.20
2018-05-09T05:58:01.380Z,3.47
2018-05-09T06:00:27.799Z,5.50
2018-05-09T06:02:54.282Z,5.23
2018-05-09T06:05:20.786Z,4.63
2018-05-09T06:07:47.126Z,6.30
2018-05-09T06:10:13.465Z,4.50
2018-05-09T06:12:39.855Z,4.13
2018-05-09T06:15:06.230Z,3.30
2018-05-09T06:17:32.583Z,5.60
2018-05-09T06:19:58.901Z,2.87
2018-05-09T06:22:25.229Z,4.67
2018-05-09T06:24:51.697Z,4.30
2018-05-09T06:27:18.117Z,6.17
2018-05-09T06:29:44.776Z,6.80
2018-05-09T06:32:11.338Z,4.73
2018-05-09T06:34:37.926Z,6.30
2018-05-09T06:37:04.306Z,7.20
2018-05-09T06:39:30.923Z,3.37
2018-05-09T06:41:57.304Z,3.07
2018-05-09T06:44:23.862Z,4.23
2018-05-09T06:46:50.380Z,5.30
2018-05-09T07:48:05.483Z,6.97
2018-05-09T07:50:31.881Z,7.23
2018-05-09T07:52:58.280Z,4.20
2018-05-09T07:55:42.289Z,11.27
2018-05-09T07:58:08.637Z,5.57
2018-05-09T08:00:35.051Z,7.00
2018-05-09T08:03:01.502Z,4.77
2018-05-09T08:05:49.447Z,3.80
2018-05-09T08:08:15.806Z,3.60
2018-05-09T08:10:42.173Z,4.83
2018-05-09T08:13:08.541Z,7.57
2018-05-09T08:15:35.056Z,4.40
2018-05-09T08:18:01.471Z,4.63
2018-05-09T08:20:27.821Z,6.53
2018-05-09T08:22:54.214Z,5.73
2018-05-09T08:25:20.669Z,6.47
2018-05-09T08:27:47.181Z,4.73
2018-05-09T08:30:13.689Z,5.80
2018-05-09T08:32:40.053Z,3.63
2018-05-09T08:35:06.578Z,3.27
2018-05-09T08:37:33.040Z,5.30
2018-05-09T08:39:59.414Z,3.90
2018-05-09T08:42:25.762Z,5.17
2018-05-09T08:44:53.205Z,5.37
2018-05-09T08:47:19.567Z,5.57
2018-05-09T08:49:45.905Z,5.57
2018-05-09T08:52:12.292Z,2.83
2018-05-09T08:54:39.723Z,2.87
2018-05-09T08:57:06.270Z,6.97
2018-05-09T08:59:32.781Z,3.37
2018-05-09T09:02:00.259Z,3.40
2018-05-09T09:04:34.935Z,2.87
2018-05-09T09:07:01.539Z,4.37
2018-05-09T09:09:27.988Z,3.17
2018-05-09T09:11:54.618Z,2.07
2018-05-09T09:14:21.132Z,2.03
2018-05-09T09:16:52.957Z,5.13
2018-05-09T09:19:19.464Z,9.07
2018-05-09T09:21:46.061Z,2.90
2018-05-09T09:24:12.639Z,3.67
2018-05-09T09:26:39.327Z,2.63
2018-05-09T09:29:05.860Z,2.37
2018-05-09T09:31:39.297Z,5.47
2018-05-09T09:34:05.734Z,2.17
2018-05-09T09:36:36.110Z,2.37
2018-05-09T09:39:02.951Z,1.40
2018-05-09T09:41:29.452Z,2.30
2018-05-09T09:43:55.866Z,1.50
2018-05-09T09:46:30.098Z,3.63
2018-05-09T09:48:56.650Z,2.20
2018-05-09T09:51:22.974Z,4.10
2018-05-09T09:53:49.403Z,3.27
2018-05-09T09:56:15.882Z,7.83
2018-05-09T09:58:42.409Z,1.70
2018-05-09T10:01:08.994Z,2.30
2018-05-09T10:03:35.444Z,5.97
2018-05-09T10:06:02.964Z,3.03
2018-05-09T10:08:29.537Z,3.73
2018-05-09T10:10:57.035Z,3.97
2018-05-09T10:13:23.562Z,4.00
2018-05-09T10:16:01.135Z,3.57
2018-05-09T10:18:27.633Z,2.63
2018-05-09T10:20:53.982Z,2.10
2018-05-09T10:23:20.473Z,2.90
2018-05-09T10:25:47.039Z,1.83
2018-05-09T10:28:13.599Z,2.23
2018-05-09T10:30:40.308Z,1.70
2018-05-09T10:33:06.784Z,2.67
2018-05-09T10:35:34.281Z,1.70
2018-05-09T10:38:00.779Z,2.93
2018-05-09T10:40:27.192Z,3.13
2018-05-09T10:42:53.609Z,1.90
2018-05-09T10:45:25.659Z,2.07
2018-05-09T10:47:52.030Z,2.10
2018-05-09T10:50:18.466Z,2.10
2018-05-09T10:52:44.931Z,1.87
2018-05-09T10:55:15.579Z,2.17
2018-05-09T10:57:42.053Z,6.20
2018-05-09T11:00:08.536Z,3.53
2018-05-09T11:02:34.969Z,2.60
2018-05-09T11:05:12.042Z,2.57
2018-05-09T11:07:38.559Z,3.70
2018-05-09T11:10:04.956Z,2.90
2018-05-09T11:12:31.565Z,1.60
2018-05-09T11:15:04.604Z,2.40
2018-05-09T11:17:31.168Z,2.03
2018-05-09T11:19:57.514Z,2.53
2018-05-09T11:22:24.007Z,2.97
2018-05-09T11:25:08.122Z,1.77
2018-05-09T11:27:34.551Z,1.80
2018-05-09T11:30:00.949Z,1.90
2018-05-09T11:32:27.525Z,1.40
2018-05-09T11:34:57.534Z,5.17
2018-05-09T11:37:23.978Z,2.47
2018-05-09T11:39:50.363Z,2.37
2018-05-09T11:42:16.875Z,2.07
2018-05-09T11:44:53.768Z,2.07
2018-05-09T11:47:20.291Z,1.60
2018-05-09T11:49:46.683Z,1.77
2018-05-09T11:52:13.159Z,2.40
2018-05-09T11:54:46.385Z,1.40
2018-05-09T11:57:12.825Z,1.57
2018-05-09T11:59:39.208Z,2.63
2018-05-09T12:02:05.679Z,2.03
2018-05-09T12:04:32.063Z,1.83
2018-05-09T12:07:06.963Z,2.87
2018-05-09T12:09:33.289Z,5.13
2018-05-09T12:11:59.726Z,2.97
2018-05-09T12:14:26.162Z,2.97
2018-05-09T12:16:56.356Z,4.30
2018-05-09T12:19:22.756Z,2.53
2018-05-09T12:21:49.161Z,1.57
2018-05-09T12:24:15.641Z,2.83
2018-05-09T12:26:42.173Z,2.77
2018-05-09T12:29:08.684Z,3.70
2018-05-09T12:31:35.169Z,2.63
2018-05-09T12:34:01.593Z,2.53
2018-05-09T12:36:28.159Z,1.60
2018-05-09T12:38:54.617Z,4.77
2018-05-09T12:41:21.139Z,1.73
2018-05-09T12:43:47.527Z,1.27
2018-05-09T12:46:14.023Z,4.00
2018-05-09T12:48:40.504Z,3.90
2018-05-09T12:51:07.058Z,1.07
2018-05-09T12:53:33.606Z,3.10
2018-05-09T12:56:00.057Z,1.90
2018-05-09T12:58:26.506Z,3.77
2018-05-09T13:00:53.481Z,2.20
2018-05-09T13:03:20.039Z,1.93
2018-05-09T13:05:46.499Z,4.60
2018-05-09T13:08:12.947Z,1.57
2018-05-09T13:10:39.317Z,3.10
2018-05-09T13:13:05.745Z,3.13
2018-05-09T13:15:32.225Z,1.73
2018-05-09T13:17:58.755Z,3.03
2018-05-09T13:20:25.186Z,4.00
2018-05-09T13:22:51.600Z,1.57
2018-05-09T13:25:18.032Z,2.03
2018-05-09T13:27:44.461Z,2.17
2018-05-09T13:30:10.862Z,2.10
2018-05-09T13:32:37.267Z,2.00
2018-05-09T13:35:03.859Z,2.33
2018-05-09T13:37:30.288Z,1.30
2018-05-09T13:39:56.662Z,1.73
2018-05-09T13:42:23.153Z,1.70
2018-05-09T13:44:49.562Z,4.53
2018-05-09T13:47:15.980Z,1.67
2018-05-09T13:49:42.437Z,5.60
2018-05-09T13:52:08.900Z,4.60
2018-05-09T13:54:35.385Z,2.30
2018-05-09T13:57:01.831Z,1.47
2018-05-09T13:59:28.220Z,1.67
2018-05-09T14:01:54.592Z,2.37
2018-05-09T14:04:21.001Z,3.63
2018-05-09T14:06:47.412Z,2.07
2018-05-09T14:09:14.885Z,1.37
2018-05-09T14:11:41.381Z,2.80
2018-05-09T14:14:07.789Z,2.23
2018-05-09T14:16:34.422Z,1.43
2018-05-09T14:19:01.289Z,2.87
2018-05-09T14:21:28.172Z,1.87
2018-05-09T14:23:54.779Z,2.40
2018-05-09T14:26:22.318Z,5.90
2018-05-09T14:28:48.977Z,3.23
2018-05-09T14:31:15.392Z,3.10
2018-05-09T14:33:41.811Z,2.93
2018-05-09T14:36:08.310Z,3.03
2018-05-09T14:38:34.758Z,2.57
2018-05-09T14:41:01.201Z,2.93
2018-05-09T14:43:27.554Z,1.80
2018-05-09T14:45:54.098Z,2.43
2018-05-09T14:48:20.621Z,1.70
2018-05-09T14:50:47.078Z,2.03
2018-05-09T14:53:13.450Z,2.60
2018-05-09T14:55:39.948Z,2.93
2018-05-09T14:58:13.487Z,3.37
2018-05-09T15:00:40.251Z,1.60
2018-05-09T15:03:06.647Z,1.50
2018-05-09T15:05:33.157Z,3.63
2018-05-09T15:07:59.626Z,1.77
2018-05-09T15:10:25.996Z,4.73
2018-05-09T15:12:52.460Z,2.20
2018-05-09T15:15:18.980Z,3.03
2018-05-09T15:17:45.384Z,3.60
2018-05-09T15:20:11.777Z,2.80
2018-05-09T15:22:38.229Z,5.93
2018-05-09T15:25:04.729Z,4.70
2018-05-09T15:27:31.280Z,1.93
2018-05-09T15:29:57.790Z,3.63
2018-05-09T15:32:24.267Z,2.37
2018-05-09T15:34:50.640Z,2.80
2018-05-09T15:37:17.252Z,2.73
2018-05-09T15:39:43.894Z,4.03
2018-05-09T15:42:10.432Z,3.23
2018-05-09T15:44:37.071Z,2.90
2018-05-09T15:47:03.604Z,4.43
2018-05-09T15:49:30.514Z,4.40
2018-05-09T15:51:56.945Z,1.67
2018-05-09T15:54:23.518Z,2.43
2018-05-09T15:56:49.968Z,2.10
2018-05-09T15:59:16.591Z,3.17
2018-05-09T16:01:42.966Z,2.83
2018-05-09T16:04:09.453Z,2.37
2018-05-09T16:06:35.962Z,4.07
2018-05-09T16:09:02.626Z,3.10
2018-05-09T16:11:29.178Z,2.13
2018-05-09T16:13:55.905Z,2.20
2018-05-09T16:16:22.851Z,3.00
2018-05-09T16:18:49.494Z,2.30
2018-05-09T16:21:15.982Z,2.67
2018-05-09T16:23:42.419Z,3.50
2018-05-09T16:26:09.818Z,3.17
2018-05-09T16:28:36.456Z,2.97
2018-05-09T16:31:02.891Z,3.37
2018-05-09T16:36:02.904Z,2.57
2018-05-09T16:38:29.468Z,3.93
2018-05-09T16:40:55.862Z,3.50
2018-05-09T16:43:22.521Z,3.83
2018-05-09T16:45:50.293Z,3.17
2018-05-09T16:48:17.359Z,4.93
2018-05-09T16:50:44.192Z,3.37
2018-05-09T16:53:11.241Z,4.37
2018-05-09T16:55:39.022Z,2.93
2018-05-09T16:58:06.232Z,3.20
2018-05-09T17:00:32.894Z,3.17
2018-05-09T17:02:59.397Z,4.17
2018-05-09T17:05:26.057Z,3.83
2018-05-09T17:07:52.714Z,4.53
2018-05-09T17:10:19.347Z,5.47
2018-05-09T17:12:45.989Z,3.57
2018-05-09T17:15:12.520Z,6.10
2018-05-09T17:17:39.165Z,3.77
2018-05-09T17:20:05.804Z,4.90
2018-05-09T17:22:33.496Z,2.57
2018-05-09T17:24:59.898Z,3.70
2018-05-09T17:27:26.378Z,2.63
2018-05-09T17:29:52.848Z,2.73
2018-05-09T17:32:19.359Z,2.53
2018-05-09T17:34:45.948Z,3.77
2018-05-09T17:37:12.431Z,2.77
2018-05-09T17:39:38.904Z,5.33
2018-05-09T17:42:05.332Z,6.23
2018-05-09T17:44:31.875Z,4.33
2018-05-09T17:46:58.413Z,3.07
2018-05-09T17:49:25.220Z,4.07
2018-05-09T17:51:51.770Z,2.43
2018-05-09T17:54:18.328Z,4.43
2018-05-09T17:56:44.809Z,4.27
2018-05-09T17:59:11.200Z,4.27
2018-05-09T18:01:37.626Z,4.57
2018-05-09T18:04:04.376Z,7.20
2018-05-09T18:06:30.908Z,4.40
2018-05-09T18:08:57.276Z,3.53
2018-05-09T18:11:23.887Z,4.33
2018-05-09T18:13:50.729Z,5.13
2018-05-09T18:16:17.257Z,4.03
2018-05-09T18:18:44.308Z,5.80
2018-05-09T18:21:10.739Z,5.77
2018-05-09T18:23:37.277Z,7.60
2018-05-09T18:26:04.232Z,8.20
2018-05-09T18:28:30.862Z,6.70
2018-05-09T18:30:57.712Z,6.63
2018-05-09T18:33:24.359Z,7.23
2018-05-09T18:35:50.878Z,7.00
2018-05-09T18:38:17.631Z,7.20
2018-05-09T18:40:44.258Z,6.30
2018-05-09T18:43:10.819Z,8.13
2018-05-09T18:45:38.255Z,8.10
2018-05-09T18:48:04.995Z,7.77
2018-05-09T18:50:31.872Z,9.33
2018-05-09T18:52:58.480Z,7.80
2018-05-09T18:55:25.243Z,10.57
2018-05-09T18:57:51.857Z,7.20
2018-05-09T19:00:18.392Z,6.40
2018-05-09T19:02:44.909Z,8.73
2018-05-09T19:05:11.467Z,9.40
2018-05-09T19:07:38.208Z,7.27
2018-05-09T19:10:04.946Z,8.77
2018-05-09T19:12:31.354Z,9.63
2018-05-09T19:14:58.087Z,11.67
2018-05-09T19:17:24.656Z,8.47
2018-05-09T19:19:52.260Z,6.83
2018-05-09T19:22:18.865Z,7.97
2018-05-09T19:24:45.494Z,6.20
2018-05-09T19:27:12.141Z,8.57
2018-05-09T19:29:38.526Z,6.50
2018-05-09T19:32:05.297Z,8.50
2018-05-09T19:34:32.252Z,8.27
2018-05-09T19:36:59.198Z,12.27
2018-05-09T19:39:25.996Z,6.40
2018-05-09T19:41:52.987Z,9.77
2018-05-09T19:44:19.628Z,6.73
2018-05-09T19:46:46.765Z,6.20
2018-05-09T19:49:13.628Z,6.70
2018-05-09T19:51:40.156Z,7.03
2018-05-09T19:54:07.210Z,7.53
2018-05-09T19:56:33.849Z,7.53
2018-05-09T19:59:00.696Z,12.63
2018-05-09T20:01:27.338Z,7.13
2018-05-09T20:03:54.033Z,10.03
2018-05-09T20:06:20.706Z,6.53
2018-05-09T20:08:47.345Z,7.20
2018-05-09T20:11:14.301Z,10.00
2018-05-09T20:13:41.042Z,6.73
2018-05-09T20:16:07.699Z,8.23
2018-05-09T20:18:34.420Z,7.97
2018-05-09T20:21:00.813Z,7.30
2018-05-09T20:23:27.490Z,9.50
2018-05-09T20:25:54.136Z,7.73
2018-05-09T20:28:20.833Z,8.60
2018-05-09T20:33:43.430Z,8.80
2018-05-09T20:36:10.004Z,8.13
2018-05-09T20:38:36.609Z,8.00
2018-05-09T20:41:03.246Z,8.53
2018-05-09T20:43:29.782Z,7.10
2018-05-09T20:45:56.317Z,9.43
2018-05-09T20:48:22.751Z,7.37
2018-05-09T20:50:49.505Z,9.97
2018-05-09T20:53:15.987Z,7.37
2018-05-09T20:55:42.410Z,7.70
2018-05-09T20:58:08.794Z,6.93
2018-05-09T21:00:35.440Z,9.50
2018-05-09T21:03:02.079Z,7.10
2018-05-09T21:05:29.529Z,7.97
2018-05-09T21:07:56.062Z,7.40
2018-05-09T21:10:22.467Z,7.93
2018-05-09T21:12:49.040Z,6.67
2018-05-09T21:15:15.680Z,6.57
2018-05-09T21:17:42.328Z,6.73
2018-05-09T21:20:08.819Z,6.83
2018-05-09T21:22:35.492Z,6.90
2018-05-09T21:25:01.907Z,6.87
2018-05-09T21:27:28.567Z,6.20
2018-05-09T21:29:55.142Z,8.53
2018-05-09T21:32:22.053Z,6.57
2018-05-09T21:34:48.686Z,6.13
2018-05-09T21:37:21.016Z,6.10
2018-05-09T21:39:47.415Z,8.43
2018-05-09T21:42:13.925Z,7.80
2018-05-09T21:44:40.237Z,7.63
2018-05-09T21:47:08.236Z,6.47
2018-05-09T21:49:34.865Z,6.73
2018-05-09T21:52:01.401Z,8.63
2018-05-09T21:54:28.133Z,8.23
2018-05-09T21:56:54.512Z,5.93
2018-05-09T21:59:20.811Z,9.60
2018-05-09T22:01:48.053Z,8.00
2018-05-09T22:04:14.463Z,6.43
2018-05-09T22:06:40.922Z,6.73
2018-05-09T22:09:07.274Z,7.53
2018-05-09T22:11:33.597Z,6.77
2018-05-09T22:14:00.014Z,8.50
2018-05-09T22:16:26.445Z,6.57
2018-05-09T22:18:52.769Z,8.93
2018-05-09T22:21:19.075Z,6.27
2018-05-09T22:23:45.453Z,7.30
2018-05-09T22:26:11.865Z,10.80
2018-05-09T22:28:38.163Z,6.70
2018-05-09T22:31:04.628Z,7.47
2018-05-09T22:33:31.048Z,9.03
2018-05-09T22:35:57.460Z,6.77
2018-05-09T22:38:23.956Z,6.63
2018-05-09T22:40:50.384Z,6.90
2018-05-09T22:43:16.922Z,7.17
2018-05-09T22:45:43.354Z,7.17
2018-05-09T22:48:10.117Z,7.30
2018-05-09T22:50:36.841Z,6.00
2018-05-09T22:53:03.300Z,6.00
2018-05-09T22:55:29.800Z,6.63
2018-05-09T22:57:56.206Z,6.57
2018-05-09T23:00:22.885Z,6.93
2018-05-09T23:02:49.390Z,6.77
2018-05-09T23:05:15.842Z,9.70
2018-05-09T23:07:42.485Z,7.00
2018-05-09T23:10:08.952Z,9.27
2018-05-09T23:12:35.324Z,7.30
2018-05-09T23:15:01.884Z,7.80
2018-05-09T23:17:28.269Z,7.77
2018-05-09T23:19:54.669Z,8.00
2018-05-09T23:22:21.021Z,8.10
2018-05-09T23:24:47.373Z,6.60
2018-05-09T23:27:13.881Z,6.67
2018-05-09T23:29:40.353Z,7.47
2018-05-09T23:32:06.836Z,9.10
2018-05-09T23:34:33.462Z,6.03
2018-05-09T23:37:00.103Z,9.37
2018-05-09T23:39:26.553Z,6.63
2018-05-09T23:41:52.899Z,7.07
2018-05-09T23:44:19.266Z,5.80
2018-05-09T23:46:45.948Z,8.60
2018-05-09T23:49:12.367Z,5.83
2018-05-09T23:51:38.739Z,6.73
2018-05-09T23:54:05.129Z,7.17
2018-05-09T23:56:31.668Z,9.57
2018-05-09T23:58:58.213Z,6.20
